createdAt,value
2023-09-23T00:01:33.287Z,98900.03
2023-09-23T00:04:11.234Z,98880.28
2023-09-23T00:06:47.189Z,98893.59
2023-09-23T00:09:20.505Z,98868.28
2023-09-23T00:11:56.992Z,98852.31
2023-09-23T00:14:32.727Z,98869.63
2023-09-23T00:17:05.363Z,98868.94
2023-09-23T00:19:40.435Z,98885.28
2023-09-23T00:22:14.095Z,98867.84
2023-09-23T00:24:43.547Z,98864.94
2023-09-23T00:27:16.403Z,98877.09
2023-09-23T00:29:46.178Z,98865.19
2023-09-23T00:32:21.167Z,98862.50
2023-09-23T00:35:01.253Z,98880.88
2023-09-23T00:37:31.902Z,98903.03
2023-09-23T00:40:01.508Z,98901.13
2023-09-23T00:42:31.724Z,98902.78
2023-09-23T00:45:24.609Z,98880.25
2023-09-23T00:47:59.476Z,98880.94
2023-09-23T00:50:47.441Z,98891.78
2023-09-23T00:53:16.713Z,98899.53
2023-09-23T00:56:00.795Z,98913.44
2023-09-23T00:58:31.100Z,98903.97
2023-09-23T01:01:06.837Z,98902.56
2023-09-23T01:03:49.704Z,98918.59
2023-09-23T01:06:23.387Z,98918.84
2023-09-23T01:08:59.810Z,98942.56
2023-09-23T01:11:33.766Z,98911.69
2023-09-23T01:14:08.643Z,98898.75
2023-09-23T01:16:44.834Z,98861.41
2023-09-23T01:19:26.586Z,98880.13
2023-09-23T01:22:10.802Z,98880.72
2023-09-23T01:24:44.973Z,98890.72
2023-09-23T01:27:22.256Z,98916.81
2023-09-23T01:29:55.809Z,98911.84
2023-09-23T01:32:44.686Z,98917.63
2023-09-23T01:35:17.429Z,98917.81
2023-09-23T01:37:57.389Z,98919.47
2023-09-23T01:40:30.566Z,98924.06
2023-09-23T01:43:04.244Z,98907.50
2023-09-23T01:45:34.926Z,98917.47
2023-09-23T01:48:04.465Z,98925.44
2023-09-23T01:50:33.702Z,98947.28
2023-09-23T01:53:05.934Z,98952.38
2023-09-23T01:55:39.025Z,98946.09
2023-09-23T01:58:14.268Z,98954.13
2023-09-23T02:00:47.349Z,98969.38
2023-09-23T02:03:18.237Z,98988.84
2023-09-23T02:06:00.173Z,98975.69
2023-09-23T02:08:34.153Z,98968.47
2023-09-23T02:11:09.806Z,98968.94
2023-09-23T02:13:46.692Z,98974.94
2023-09-23T02:16:22.796Z,98956.28
2023-09-23T02:19:03.842Z,98973.00
2023-09-23T02:21:40.632Z,98944.84
2023-09-23T02:24:22.652Z,98934.31
2023-09-23T02:26:53.825Z,98922.63
2023-09-23T02:29:29.203Z,98917.47
2023-09-23T02:32:06.866Z,98925.75
2023-09-23T02:34:40.749Z,98929.06
2023-09-23T02:37:12.642Z,98932.03
2023-09-23T02:39:47.888Z,98948.66
2023-09-23T02:42:23.904Z,98960.44
2023-09-23T02:45:06.292Z,98971.56
2023-09-23T02:47:47.857Z,98978.66
2023-09-23T02:50:23.783Z,98974.63
2023-09-23T02:52:52.632Z,98985.50
2023-09-23T02:55:21.500Z,98994.81
2023-09-23T02:57:59.629Z,99007.22
2023-09-23T03:00:31.650Z,99004.38
2023-09-23T03:03:13.702Z,98995.00
2023-09-23T03:05:56.624Z,99005.03
2023-09-23T03:08:27.101Z,99006.59
2023-09-23T03:11:04.144Z,99016.66
2023-09-23T03:13:51.904Z,99004.50
2023-09-23T03:16:30.156Z,98994.31
2023-09-23T03:19:12.242Z,99004.84
2023-09-23T03:21:51.685Z,99006.81
2023-09-23T03:24:22.607Z,99016.34
2023-09-23T03:26:56.604Z,98978.50
2023-09-23T03:29:42.973Z,98991.28
2023-09-23T03:32:12.055Z,99005.19
2023-09-23T03:34:43.285Z,99003.94
2023-09-23T03:37:16.823Z,99015.78
2023-09-23T03:39:45.214Z,99014.44
2023-09-23T03:42:23.983Z,99006.78
2023-09-23T03:45:00.796Z,99016.91
2023-09-23T03:47:31.776Z,99036.50
2023-09-23T03:50:04.520Z,99038.19
2023-09-23T03:52:42.219Z,99033.22
2023-09-23T03:55:15.328Z,99028.28
2023-09-23T03:57:48.962Z,99020.34
2023-09-23T04:00:30.312Z,99022.69
2023-09-23T04:03:04.722Z,99018.41
2023-09-23T04:05:45.018Z,99023.31
2023-09-23T04:08:15.054Z,99019.25
2023-09-23T04:10:55.101Z,99038.47
2023-09-23T04:13:34.564Z,99041.75
2023-09-23T04:16:07.633Z,99033.28
2023-09-23T04:18:38.625Z,99039.38
2023-09-23T04:21:07.817Z,99044.44
2023-09-23T04:23:48.340Z,99027.31
2023-09-23T04:26:18.282Z,99029.50
2023-09-23T04:28:59.060Z,99036.88
2023-09-23T04:31:30.130Z,99048.13
2023-09-23T04:34:00.465Z,99032.59
2023-09-23T04:36:33.158Z,99034.63
2023-09-23T04:39:07.843Z,99037.81
2023-09-23T04:41:48.268Z,99037.50
2023-09-23T04:44:20.220Z,99054.25
2023-09-23T04:47:14.122Z,99067.53
2023-09-23T04:49:47.321Z,99070.13
2023-09-23T04:52:18.240Z,99068.41
2023-09-23T04:54:48.317Z,99066.41
2023-09-23T04:57:16.912Z,99082.97
2023-09-23T04:59:51.571Z,99085.66
2023-09-23T05:02:23.825Z,99075.53
2023-09-23T05:05:01.741Z,99080.91
2023-09-23T05:07:49.416Z,99077.03
2023-09-23T05:10:20.314Z,99104.13
2023-09-23T05:13:01.011Z,99095.81
2023-09-23T05:15:39.611Z,99107.97
2023-09-23T05:18:17.726Z,99112.91
2023-09-23T05:20:57.768Z,99114.31
2023-09-23T05:23:29.887Z,99131.03
2023-09-23T05:26:00.480Z,99127.44
2023-09-23T05:28:38.513Z,99123.22
2023-09-23T05:31:07.726Z,99130.25
2023-09-23T05:33:47.115Z,99133.38
2023-09-23T05:36:23.846Z,99132.81
2023-09-23T05:38:53.914Z,99127.56
2023-09-23T05:41:25.662Z,99147.22
2023-09-23T05:43:55.646Z,99152.88
2023-09-23T05:46:36.714Z,99159.75
2023-09-23T05:49:23.105Z,99156.25
2023-09-23T05:52:02.425Z,99159.41
2023-09-23T05:54:31.031Z,99168.34
2023-09-23T05:57:08.330Z,99172.63
2023-09-23T05:59:36.697Z,99159.03
2023-09-23T06:02:17.606Z,99172.00
2023-09-23T06:05:02.481Z,99170.38
2023-09-23T06:07:39.899Z,99189.13
2023-09-23T06:10:12.922Z,99180.72
2023-09-23T06:12:41.821Z,99184.31
2023-09-23T06:15:22.581Z,99186.69
2023-09-23T06:17:59.899Z,99181.63
2023-09-23T06:20:37.009Z,99192.25
2023-09-23T06:23:10.949Z,99205.25
2023-09-23T06:25:50.374Z,99211.63
2023-09-23T06:28:21.327Z,99208.50
2023-09-23T06:30:57.186Z,99188.28
2023-09-23T06:33:27.458Z,99211.97
2023-09-23T06:36:04.470Z,99219.66
2023-09-23T06:38:35.469Z,99232.22
2023-09-23T06:41:10.177Z,99228.59
2023-09-23T06:43:41.519Z,99235.88
2023-09-23T06:46:10.510Z,99215.31
2023-09-23T06:48:39.970Z,99232.75
2023-09-23T06:51:17.323Z,99235.59
2023-09-23T06:53:58.734Z,99232.25
2023-09-23T06:56:29.883Z,99231.81
2023-09-23T06:59:08.829Z,99235.66
2023-09-23T07:01:47.369Z,99225.31
2023-09-23T07:04:21.103Z,99238.75
2023-09-23T07:06:57.458Z,99232.25
2023-09-23T07:09:32.124Z,99247.41
2023-09-23T07:12:04.088Z,99246.44
2023-09-23T07:14:36.780Z,99237.94
2023-09-23T07:17:07.547Z,99239.19
2023-09-23T07:19:37.829Z,99258.00
2023-09-23T07:22:08.500Z,99262.94
2023-09-23T07:24:41.440Z,99280.22
2023-09-23T07:27:19.457Z,99267.59
2023-09-23T07:29:58.049Z,99294.13
2023-09-23T07:32:28.531Z,99277.09
2023-09-23T07:34:57.834Z,99268.88
2023-09-23T07:37:43.949Z,99274.50
2023-09-23T07:40:17.548Z,99296.69
2023-09-23T07:42:48.679Z,99305.50
2023-09-23T07:45:24.612Z,99306.13
2023-09-23T07:47:59.565Z,99314.03
2023-09-23T07:50:34.323Z,99309.53
2023-09-23T07:53:04.762Z,99311.09
2023-09-23T07:55:45.012Z,99321.47
2023-09-23T07:58:17.199Z,99318.25
2023-09-23T08:00:47.422Z,99313.31
2023-09-23T08:03:22.338Z,99325.66
2023-09-23T08:05:56.555Z,99328.72
2023-09-23T08:08:32.635Z,99321.84
2023-09-23T08:11:14.038Z,99339.03
2023-09-23T08:13:46.161Z,99335.09
2023-09-23T08:16:15.413Z,99329.00
2023-09-23T08:18:48.291Z,99329.72
2023-09-23T08:21:27.966Z,99331.41
2023-09-23T08:24:01.856Z,99313.75
2023-09-23T08:26:32.493Z,99335.28
2023-09-23T08:29:07.982Z,99316.66
2023-09-23T08:31:46.341Z,99325.91
2023-09-23T08:34:17.458Z,99323.59
2023-09-23T08:36:47.740Z,99321.88
2023-09-23T08:39:26.777Z,99324.81
2023-09-23T08:42:03.279Z,99328.66
2023-09-23T08:44:38.014Z,99311.84
2023-09-23T08:47:08.184Z,99328.56
2023-09-23T08:49:40.214Z,99328.03
2023-09-23T08:52:13.473Z,99332.97
2023-09-23T08:54:46.523Z,99333.88
2023-09-23T08:57:24.700Z,99344.59
2023-09-23T08:59:57.062Z,99327.44
2023-09-23T09:02:35.357Z,99347.38
2023-09-23T09:05:07.381Z,99332.47
2023-09-23T09:07:45.925Z,99339.66
2023-09-23T09:10:23.327Z,99332.84
2023-09-23T09:13:00.032Z,99324.13
2023-09-23T09:15:32.796Z,99343.75
2023-09-23T09:18:07.076Z,99340.31
2023-09-23T09:20:41.784Z,99340.94
2023-09-23T09:23:34.487Z,99332.25
2023-09-23T09:26:11.446Z,99336.03
2023-09-23T09:28:45.493Z,99329.03
2023-09-23T09:31:16.465Z,99319.81
2023-09-23T09:33:49.010Z,99332.75
2023-09-23T09:36:32.739Z,99335.44
2023-09-23T09:39:10.290Z,99331.63
2023-09-23T09:41:52.788Z,99345.28
2023-09-23T09:44:27.181Z,99354.19
2023-09-23T09:47:05.877Z,99341.63
2023-09-23T09:49:35.688Z,99339.47
2023-09-23T09:52:16.902Z,99347.19
2023-09-23T09:54:49.429Z,99344.72
2023-09-23T09:57:28.622Z,99351.38
2023-09-23T10:00:20.097Z,99342.41
2023-09-23T10:02:53.474Z,99361.94
2023-09-23T10:05:30.097Z,99365.75
2023-09-23T10:08:04.467Z,99367.19
2023-09-23T10:10:36.049Z,99376.91
2023-09-23T10:13:23.734Z,99389.91
2023-09-23T10:15:54.683Z,99395.72
2023-09-23T10:18:28.699Z,99413.38
2023-09-23T10:20:58.474Z,99377.75
2023-09-23T10:23:30.704Z,99404.75
2023-09-23T10:25:59.498Z,99382.81
2023-09-23T10:28:42.225Z,99395.69
2023-09-23T10:31:23.100Z,99373.63
2023-09-23T10:34:04.430Z,99390.84
2023-09-23T10:36:38.045Z,99387.50
2023-09-23T10:39:18.424Z,99375.41
2023-09-23T10:41:47.473Z,99376.63
2023-09-23T10:44:25.310Z,99382.03
2023-09-23T10:47:03.468Z,99381.38
2023-09-23T10:49:32.142Z,99382.75
2023-09-23T10:52:04.243Z,99370.34
2023-09-23T10:54:36.874Z,99402.09
2023-09-23T10:57:07.895Z,99384.13
2023-09-23T10:59:45.870Z,99391.72
2023-09-23T11:02:18.729Z,99390.41
2023-09-23T11:04:51.215Z,99402.44
2023-09-23T11:07:23.474Z,99397.94
2023-09-23T11:09:58.052Z,99379.78
2023-09-23T11:12:39.993Z,99384.78
2023-09-23T11:15:27.411Z,99400.72
2023-09-23T11:17:57.479Z,99390.25
2023-09-23T11:20:34.482Z,99398.41
2023-09-23T11:23:09.102Z,99405.25
2023-09-23T11:25:50.336Z,99419.22
2023-09-23T11:28:22.198Z,99402.59
2023-09-23T11:31:03.192Z,99400.28
2023-09-23T11:33:46.251Z,99407.25
2023-09-23T11:36:29.431Z,99440.38
2023-09-23T11:39:05.036Z,99445.06
2023-09-23T11:41:36.352Z,99441.53
2023-09-23T11:44:16.188Z,99434.06
2023-09-23T11:46:50.046Z,99433.75
2023-09-23T11:49:21.882Z,99438.38
2023-09-23T11:51:57.347Z,99432.38
2023-09-23T11:54:29.864Z,99422.88
2023-09-23T11:56:59.618Z,99416.28
2023-09-23T11:59:31.853Z,99425.47
2023-09-23T12:02:05.137Z,99414.44
2023-09-23T12:04:38.487Z,99414.63
2023-09-23T12:07:10.343Z,99396.38
2023-09-23T12:09:46.416Z,99410.00
2023-09-23T12:12:20.900Z,99426.94
2023-09-23T12:14:55.623Z,99432.94
2023-09-23T12:17:30.225Z,99434.00
2023-09-23T12:20:02.764Z,99431.00
2023-09-23T12:22:36.535Z,99425.41
2023-09-23T12:25:12.094Z,99426.53
2023-09-23T12:27:50.233Z,99434.78
2023-09-23T12:30:31.695Z,99443.25
2023-09-23T12:33:11.676Z,99439.00
2023-09-23T12:35:43.336Z,99446.84
2023-09-23T12:38:18.168Z,99448.97
2023-09-23T12:40:50.280Z,99435.78
2023-09-23T12:43:20.935Z,99417.91
2023-09-23T12:45:53.959Z,99439.53
2023-09-23T12:48:27.248Z,99437.50
2023-09-23T12:50:58.374Z,99442.59
2023-09-23T12:53:34.896Z,99426.13
2023-09-23T12:56:05.551Z,99432.25
2023-09-23T12:58:37.342Z,99440.31
2023-09-23T13:01:11.481Z,99439.66
2023-09-23T13:03:46.690Z,99461.16
2023-09-23T13:06:17.029Z,99444.72
2023-09-23T13:08:55.893Z,99464.09
2023-09-23T13:11:28.141Z,99465.72
2023-09-23T13:14:00.833Z,99456.63
2023-09-23T13:16:39.796Z,99456.81
2023-09-23T13:19:27.093Z,99440.31
2023-09-23T13:22:03.221Z,99448.56
2023-09-23T13:24:55.262Z,99441.44
2023-09-23T13:27:28.421Z,99460.47
2023-09-23T13:30:16.256Z,99474.13
2023-09-23T13:32:57.593Z,99484.91
2023-09-23T13:35:41.824Z,99459.94
2023-09-23T13:38:38.433Z,99472.47
2023-09-23T13:41:15.029Z,99486.59
2023-09-23T13:43:54.817Z,99471.97
2023-09-23T13:46:30.398Z,99469.50
2023-09-23T13:49:17.714Z,99475.53
2023-09-23T13:52:03.187Z,99462.16
2023-09-23T13:54:45.517Z,99466.47
2023-09-23T13:57:19.791Z,99470.31
2023-09-23T14:00:02.545Z,99473.25
2023-09-23T14:02:43.786Z,99476.09
2023-09-23T14:05:27.057Z,99474.09
2023-09-23T14:08:08.534Z,99489.25
2023-09-23T14:10:50.736Z,99493.78
2023-09-23T14:13:36.573Z,99496.53
2023-09-23T14:16:17.556Z,99474.72
2023-09-23T14:18:55.132Z,99496.16
2023-09-23T14:21:38.437Z,99501.97
2023-09-23T14:24:13.491Z,99490.28
2023-09-23T14:26:57.299Z,99482.97
2023-09-23T14:29:31.579Z,99484.41
2023-09-23T14:32:12.585Z,99492.59
2023-09-23T14:34:46.241Z,99485.56
2023-09-23T14:37:23.278Z,99490.69
2023-09-23T14:40:02.906Z,99503.41
2023-09-23T14:42:43.601Z,99493.44
2023-09-23T14:45:30.089Z,99515.13
2023-09-23T14:48:14.355Z,99498.03
2023-09-23T14:50:46.858Z,99502.47
2023-09-23T14:53:28.317Z,99504.47
2023-09-23T14:56:04.897Z,99491.16
2023-09-23T14:58:42.588Z,99495.59
2023-09-23T15:01:33.227Z,99507.63
2023-09-23T15:04:04.317Z,99520.38
2023-09-23T15:06:45.899Z,99512.03
2023-09-23T15:09:21.946Z,99509.63
2023-09-23T15:12:11.094Z,99516.06
2023-09-23T15:14:47.643Z,99506.91
2023-09-23T15:17:21.866Z,99523.78
2023-09-23T15:19:57.177Z,99506.34
2023-09-23T15:22:31.909Z,99543.66
2023-09-23T15:25:14.528Z,99533.00
2023-09-23T15:28:01.110Z,99538.03
2023-09-23T15:30:33.757Z,99534.06
2023-09-23T15:33:35.993Z,99541.69
2023-09-23T15:36:17.858Z,99548.91
2023-09-23T15:39:00.067Z,99541.19
2023-09-23T15:41:32.168Z,99539.81
2023-09-23T15:44:16.304Z,99531.44
2023-09-23T15:47:00.573Z,99554.28
2023-09-23T15:49:42.371Z,99532.75
2023-09-23T15:52:20.056Z,99566.31
2023-09-23T15:55:01.435Z,99566.75
2023-09-23T15:57:42.187Z,99559.31
2023-09-23T16:00:29.454Z,99563.97
2023-09-23T16:03:04.322Z,99556.91
2023-09-23T16:05:41.351Z,99558.59
2023-09-23T16:08:17.504Z,99582.38
2023-09-23T16:10:51.767Z,99592.81
2023-09-23T16:13:23.579Z,99566.44
2023-09-23T16:16:18.362Z,99577.38
2023-09-23T16:18:59.055Z,99555.38
2023-09-23T16:21:33.405Z,99571.56
2023-09-23T16:24:25.518Z,99562.25
2023-09-23T16:27:05.012Z,99572.66
2023-09-23T16:29:42.216Z,99592.28
2023-09-23T16:32:33.867Z,99570.97
2023-09-23T16:35:20.002Z,99598.81
2023-09-23T16:38:00.838Z,99577.03
2023-09-23T16:40:34.468Z,99598.06
2023-09-23T16:43:07.671Z,99608.75
2023-09-23T16:45:51.326Z,99586.66
2023-09-23T16:48:39.547Z,99607.91
2023-09-23T16:51:20.465Z,99608.66
2023-09-23T16:54:11.025Z,99621.13
2023-09-23T16:56:50.467Z,99613.28
2023-09-23T16:59:29.193Z,99621.69
2023-09-23T17:02:02.547Z,99613.03
2023-09-23T17:04:51.208Z,99632.91
2023-09-23T17:07:27.014Z,99632.88
2023-09-23T17:10:01.798Z,99634.84
2023-09-23T17:12:32.618Z,99661.75
2023-09-23T17:15:16.949Z,99671.91
2023-09-23T17:17:54.083Z,99679.78
2023-09-23T17:20:39.419Z,99695.19
2023-09-23T17:23:14.446Z,99701.88
2023-09-23T17:26:01.085Z,99682.94
2023-09-23T17:28:44.195Z,99708.56
2023-09-23T17:31:20.630Z,99694.44
2023-09-23T17:33:54.712Z,99717.09
2023-09-23T17:36:33.161Z,99698.59
2023-09-23T17:39:13.381Z,99708.97
2023-09-23T17:42:00.959Z,99718.06
2023-09-23T17:44:48.030Z,99732.31
2023-09-23T17:47:31.244Z,99718.56
2023-09-23T17:50:13.000Z,99725.78
2023-09-23T17:53:10.323Z,99736.97
2023-09-23T17:55:55.583Z,99749.38
2023-09-23T17:58:37.068Z,99732.59
2023-09-23T18:01:34.344Z,99730.28
2023-09-23T18:04:34.399Z,99745.00
2023-09-23T18:07:23.402Z,99749.31
2023-09-23T18:10:02.258Z,99762.47
2023-09-23T18:12:39.964Z,99760.03
2023-09-23T18:15:32.822Z,99784.06
2023-09-23T18:18:18.994Z,99780.88
2023-09-23T18:21:02.896Z,99780.81
2023-09-23T18:23:49.634Z,99800.09
2023-09-23T18:33:00.140Z,99800.09
2023-09-23T18:35:43.032Z,99812.19
2023-09-23T18:38:17.355Z,99803.47
2023-09-23T18:41:08.532Z,99817.91
2023-09-23T18:43:55.456Z,99802.88
2023-09-23T18:47:07.037Z,99807.47
2023-09-23T18:49:48.601Z,99814.56
2023-09-23T18:52:29.904Z,99820.44
2023-09-23T18:55:40.042Z,99829.47
2023-09-23T18:58:22.577Z,99821.38
2023-09-23T19:01:06.316Z,99825.22
2023-09-23T19:03:47.216Z,99824.41
2023-09-23T19:06:26.380Z,99811.53
2023-09-23T19:12:17.631Z,99805.53
2023-09-23T19:14:56.747Z,99815.09
2023-09-23T19:17:35.228Z,99803.97
2023-09-23T19:20:36.448Z,99816.16
2023-09-23T19:26:44.820Z,99818.41
2023-09-23T19:32:26.532Z,99814.84
2023-09-23T19:35:20.659Z,99829.25
2023-09-23T19:38:08.336Z,99827.72
2023-09-23T19:40:56.868Z,99821.72
2023-09-23T19:43:51.010Z,99821.09
2023-09-23T19:46:41.494Z,99810.00
2023-09-23T19:49:18.889Z,99833.03
2023-09-23T19:52:05.396Z,99828.34
2023-09-23T19:54:43.776Z,99842.84
2023-09-23T19:57:27.111Z,99839.34
2023-09-23T20:00:16.846Z,99823.34
2023-09-23T20:02:52.234Z,99838.44
2023-09-23T20:05:31.143Z,99835.66
2023-09-23T20:08:22.909Z,99852.84
2023-09-23T20:11:07.533Z,99849.63
2023-09-23T20:13:48.703Z,99863.03
2023-09-23T20:16:30.050Z,99853.53
2023-09-23T20:19:10.905Z,99853.72
2023-09-23T20:21:43.649Z,99859.34
2023-09-23T20:24:20.002Z,99848.59
2023-09-23T20:26:58.556Z,99858.94
2023-09-23T20:29:39.331Z,99868.50
2023-09-23T20:32:24.402Z,99865.63
2023-09-23T20:35:01.542Z,99879.22
2023-09-23T20:37:35.820Z,99862.00
2023-09-23T20:40:14.292Z,99868.25
2023-09-23T20:42:57.409Z,99877.88
2023-09-23T20:45:38.284Z,99877.16
2023-09-23T20:48:14.081Z,99894.00
2023-09-23T20:50:55.300Z,99881.38
2023-09-23T20:53:30.429Z,99896.41
2023-09-23T20:56:13.302Z,99902.16
2023-09-23T20:58:56.158Z,99910.91
2023-09-23T21:01:33.842Z,99911.84
2023-09-23T21:04:11.249Z,99918.13
2023-09-23T21:06:43.479Z,99928.06
2023-09-23T21:09:18.197Z,99909.38
2023-09-23T21:12:02.046Z,99926.75
2023-09-23T21:14:32.870Z,99903.28
2023-09-23T21:17:11.147Z,99914.88
2023-09-23T21:19:44.760Z,99913.19
2023-09-23T21:22:21.458Z,99926.75
2023-09-23T21:24:52.333Z,99915.97
2023-09-23T21:27:23.787Z,99925.94
2023-09-23T21:29:58.211Z,99914.31
2023-09-23T21:32:31.277Z,99908.75
2023-09-23T21:35:11.480Z,99912.56
2023-09-23T21:37:40.519Z,99905.06
2023-09-23T21:40:23.123Z,99892.75
2023-09-23T21:43:00.879Z,99896.31
2023-09-23T21:45:32.713Z,99893.72
2023-09-23T21:48:08.573Z,99893.03
2023-09-23T21:50:47.056Z,99895.91
2023-09-23T21:53:19.406Z,99904.09
2023-09-23T21:55:53.800Z,99894.31
2023-09-23T21:58:35.338Z,99894.28
2023-09-23T22:01:11.422Z,99899.69
2023-09-23T22:03:47.830Z,99901.81
2023-09-23T22:06:25.860Z,99893.25
2023-09-23T22:08:59.617Z,99891.78
2023-09-23T22:11:36.782Z,99883.69
2023-09-23T22:14:10.658Z,99910.09
2023-09-23T22:16:44.908Z,99903.75
2023-09-23T22:19:27.062Z,99899.44
2023-09-23T22:22:01.796Z,99893.84
2023-09-23T22:24:35.614Z,99897.56
2023-09-23T22:27:07.083Z,99900.63
2023-09-23T22:29:40.402Z,99893.50
2023-09-23T22:32:25.032Z,99893.53
2023-09-23T22:34:56.791Z,99901.28
2023-09-23T22:37:36.550Z,99916.41
2023-09-23T22:40:21.704Z,99902.47
2023-09-23T22:42:58.902Z,99908.03
2023-09-23T22:45:39.575Z,99876.88
2023-09-23T22:48:13.729Z,99870.47
2023-09-23T22:50:46.688Z,99856.13
2023-09-23T22:53:22.394Z,99860.06
2023-09-23T22:55:56.834Z,99863.78
2023-09-23T22:58:30.233Z,99883.78
2023-09-23T23:01:01.813Z,99863.28
2023-09-23T23:03:41.235Z,99849.81
2023-09-23T23:06:10.705Z,99868.66
2023-09-23T23:08:45.024Z,99857.34
2023-09-23T23:11:35.667Z,99872.22
2023-09-23T23:14:07.680Z,99838.38
2023-09-23T23:16:46.280Z,99837.69
2023-09-23T23:19:31.162Z,99849.66
2023-09-23T23:22:12.596Z,99858.41
2023-09-23T23:24:45.564Z,99846.97
2023-09-23T23:27:15.772Z,99873.88
2023-09-23T23:29:55.638Z,99875.22
2023-09-23T23:32:27.904Z,99876.06
2023-09-23T23:35:01.800Z,99885.84
2023-09-23T23:37:44.792Z,99926.84
2023-09-23T23:40:13.349Z,99930.25
2023-09-23T23:42:43.899Z,99919.81
2023-09-23T23:45:19.971Z,99927.88
2023-09-23T23:48:05.774Z,99939.66
2023-09-23T23:50:39.921Z,99948.06
2023-09-23T23:53:11.184Z,99937.94
2023-09-23T23:55:40.962Z,99949.72
2023-09-23T23:58:18.651Z,99965.72
